Airfield :
LOGIN :

Register | Disclaimer

   EN    FR    IT 

 










Legend :    VFR   Marginal VFR   IFR   Intensive IFR   Very Intensive IFR
Visi :
Ceiling :
>= 8 km
>= 3000ft
5 to 8 km
1000 to 3000 ft
1500m to 5 km
500 to 1000 ft
800 to 1500m
200 to 500 ft
< 800m
< 200 ft
Symbols :   Thunderstorms  Fog  Heavy snow  Heavy precipitations  Wind > 20 kt
SIGMETs :     Misc.  Thunderstorms  Icing  Turbulence  Mountain Waves  Volcanic Ashes






- Airport Elevation : 2031 ft


LEGT - Madrid Getafe

CURRENT METAR :
  • 221500Z 21012G22KT 180V250 4000 RA BKN005 OVC010 12/12 Q0992

EXPIRED METARs :
  • 221436Z 20012KT 170V230 4000 -RA BR BKN004 OVC010 12/12 Q0992
  • 221400Z 18013KT 8000 -RA FEW005 SCT010 BKN020 12/11 Q0993
  • 221300Z 17013KT 4000 RA BKN004 OVC008 11/11 Q0994

TAF TAF LEGT
Valid from the 22 at 15:00 until the 23 at 00:00 UTC


221400Z 2215/2224 22012KT 9999 BKN020
PROB40
TEMPO 2215/2224 2000 RADZ BR BKN004
PROB40
TEMPO 2215/2221 22015G30KT
PROB40
TEMPO 2221/2224 24015G25KT



MET'MAP, your aeronautical weather chart ! - Copyright ORBIFLY December 2007 - Disclaimer

ORBIFLY MET'MAP TEAM :

Programming & Development : Alexandra Zaïnal
Concept & Development : Baudouin d'Aumeries
Co-Development & Prog : Marc-Olivier Méhu
Technical & hardware support : Manuel Goepfert

Contact : metmap@orbifly.com




SOURCES & CREDITS :

   NOAA